Time;durP1;ratioP1;P1;durP2;ratioP2;P2;SDS_P1;SDS_P2;PMS_P1;PMS_P2;Temp;Humidity;BMP_temperature;BMP_pressure;BME280_temperature;BME280_humidity;BME280_pressure;Samples;Min_cycle;Max_cycle;Signal;HPM_P1;HPM_P2
2023/03/31 18:31:25;;;;;;;5.35;1.08;;;;;;;13.32;74.89;99088.34;5081338;27;20471;-45
2023/03/31 18:33:53;;;;;;;5.32;1.45;;;;;;;13.35;74.92;99092.56;5065750;28;20079;-47
2023/03/31 18:36:20;;;;;;;5.72;1.23;;;;;;;13.39;75.25;99093.91;5065753;28;20024;-59
2023/03/31 18:38:46;;;;;;;8.05;1.55;;;;;;;13.39;74.55;99102.75;5063036;28;20037;-57
2023/03/31 18:41:12;;;;;;;3.17;1.00;;;;;;;13.43;74.52;99100.59;5065932;28;20033;-60
2023/03/31 18:43:37;;;;;;;4.47;1.30;;;;;;;13.44;74.14;99092.44;5057854;28;20103;-48
2023/03/31 18:46:03;;;;;;;4.07;1.13;;;;;;;13.43;73.89;99106.78;5060955;28;20135;-48
2023/03/31 18:48:28;;;;;;;5.22;1.17;;;;;;;13.43;74.01;99097.94;5065980;28;20100;-48
2023/03/31 18:50:54;;;;;;;4.03;1.17;;;;;;;13.41;74.43;99094.59;5061024;28;20040;-49
2023/03/31 18:53:22;;;;;;;3.25;1.20;;;;;;;13.39;74.38;99094.75;5067588;28;20040;-49
2023/03/31 18:55:48;;;;;;;6.05;1.48;;;;;;;13.38;74.30;99095.72;5058087;28;20564;-45
2023/03/31 18:58:14;;;;;;;7.25;1.17;;;;;;;13.38;73.99;99093.06;5068350;28;20430;-47
2023/03/31 19:00:40;;;;;;;4.03;0.98;;;;;;;13.37;74.23;99095.91;5063042;28;20108;-46
2023/03/31 19:03:06;;;;;;;3.03;1.00;;;;;;;13.36;73.82;99088.88;5063689;28;20355;-49
2023/03/31 19:05:31;;;;;;;4.82;1.50;;;;;;;13.35;74.26;99093.38;5070727;28;20039;-47
2023/03/31 19:07:57;;;;;;;2.47;1.40;;;;;;;13.34;73.76;99097.03;5065262;28;20037;-50
2023/03/31 19:10:23;;;;;;;3.00;1.17;;;;;;;13.33;74.08;99106.06;5066211;28;20037;-49
2023/03/31 19:12:48;;;;;;;5.88;1.00;;;;;;;13.33;74.09;99098.06;5067746;28;20095;-47
2023/03/31 19:15:14;;;;;;;3.88;1.40;;;;;;;13.33;73.98;99097.19;5063798;28;20036;-45
2023/03/31 19:17:40;;;;;;;1.92;0.90;;;;;;;13.32;73.75;99099.03;5063708;28;20535;-50
2023/03/31 19:20:06;;;;;;;3.65;1.23;;;;;;;13.33;74.13;99107.88;5067647;28;20028;-47
2023/03/31 19:22:32;;;;;;;3.72;1.00;;;;;;;13.30;73.86;99101.88;5060872;28;20037;-48
2023/03/31 19:24:57;;;;;;;3.40;1.15;;;;;;;13.30;73.82;99104.53;5067942;28;21252;-47
2023/03/31 19:27:23;;;;;;;1.42;0.90;;;;;;;13.29;74.01;99110.88;5062789;28;20074;-49
2023/03/31 19:29:49;;;;;;;4.78;1.17;;;;;;;13.28;73.43;99108.34;5065134;28;20080;-49
2023/03/31 19:32:15;;;;;;;3.97;0.90;;;;;;;13.28;73.57;99103.00;5063713;28;20041;-49
2023/03/31 19:34:41;;;;;;;2.22;1.13;;;;;;;13.28;73.74;99109.19;5064065;28;20385;-47
2023/03/31 19:37:07;;;;;;;2.67;0.77;;;;;;;13.27;73.45;99110.19;5038832;28;20541;-49
2023/03/31 19:39:32;;;;;;;3.42;1.10;;;;;;;13.27;73.67;99109.34;5038146;28;20053;-51
2023/03/31 19:41:58;;;;;;;2.15;1.20;;;;;;;13.27;73.77;99107.50;5034733;28;20041;-49
2023/03/31 19:44:23;;;;;;;2.35;1.00;;;;;;;13.26;73.24;99108.50;5034617;28;20064;-49
2023/03/31 19:46:48;;;;;;;2.65;0.80;;;;;;;13.25;73.68;99101.50;5027926;28;20048;-50
2023/03/31 19:49:14;;;;;;;3.50;1.15;;;;;;;13.25;73.59;99097.97;5030182;28;20064;-50
2023/03/31 19:51:40;;;;;;;3.10;1.00;;;;;;;13.25;73.71;99101.50;5031647;28;20036;-48
2023/03/31 19:54:06;;;;;;;5.40;1.25;;;;;;;13.25;73.34;99093.47;5033501;28;20029;-48
2023/03/31 19:56:32;;;;;;;3.10;0.80;;;;;;;13.24;73.54;99096.31;5025553;28;20433;-48
2023/03/31 19:58:58;;;;;;;2.70;1.20;;;;;;;13.23;73.52;99095.47;5032858;28;20061;-48
2023/03/31 20:01:25;;;;;;;5.25;0.93;;;;;;;13.23;73.22;99092.78;5026619;28;20041;-46
2023/03/31 20:03:51;;;;;;;1.40;0.90;;;;;;;13.23;73.35;99090.13;5034545;28;20029;-48
2023/03/31 20:06:19;;;;;;;2.40;0.80;;;;;;;13.23;73.57;99091.94;5026292;28;20026;-49
2023/03/31 20:08:46;;;;;;;3.30;1.10;;;;;;;13.22;73.32;99096.44;5033044;28;20029;-48
2023/03/31 20:11:13;;;;;;;0.85;0.60;;;;;;;13.22;73.27;99087.59;5027453;28;20029;-49
2023/03/31 20:13:40;;;;;;;3.80;1.38;;;;;;;13.22;73.53;99087.59;5028113;28;20029;-50
2023/03/31 20:16:17;;;;;;;1.73;0.88;;;;;;;13.21;73.42;99094.78;5028245;28;20021;-48
2023/03/31 20:18:46;;;;;;;1.90;0.90;;;;;;;13.21;72.90;99086.78;5035804;28;20112;-50
2023/03/31 20:21:17;;;;;;;2.75;0.80;;;;;;;13.20;73.18;99086.94;5028431;28;20067;-47
2023/03/31 20:23:44;;;;;;;2.23;0.87;;;;;;;13.20;72.89;99085.09;5026222;28;20068;-48
2023/03/31 20:26:12;;;;;;;1.83;0.90;;;;;;;13.18;73.46;99092.44;5030511;28;20025;-51
2023/03/31 20:28:38;;;;;;;2.17;0.70;;;;;;;13.19;73.27;99088.75;5021705;28;20033;-49
2023/03/31 20:31:16;;;;;;;2.88;1.00;;;;;;;13.20;72.99;99081.59;5026040;28;20065;-48
2023/03/31 20:33:42;;;;;;;1.90;0.65;;;;;;;13.19;73.32;99078.03;5034054;28;20451;-46
2023/03/31 20:36:19;;;;;;;1.67;0.63;;;;;;;13.18;73.19;99076.38;5024324;28;20053;-48
2023/03/31 20:38:47;;;;;;;2.67;0.90;;;;;;;13.18;73.20;99076.38;5026587;28;20512;-49
2023/03/31 20:41:13;;;;;;;2.38;1.20;;;;;;;13.17;73.14;99085.38;5026702;28;20460;-46
2023/03/31 20:43:39;;;;;;;1.27;0.85;;;;;;;13.17;73.11;99090.72;5035092;28;20386;-45
2023/03/31 20:46:06;;;;;;;1.85;0.93;;;;;;;13.18;72.78;99083.56;5027475;28;20112;-47
2023/03/31 20:48:37;;;;;;;1.33;0.80;;;;;;;13.16;73.14;99091.75;5030569;28;20039;-48
2023/03/31 20:51:04;;;;;;;3.67;1.10;;;;;;;13.17;72.81;99085.38;5023461;28;20053;-49
2023/03/31 20:53:29;;;;;;;1.10;0.85;;;;;;;13.16;73.13;99083.72;5028912;28;20280;-47
2023/03/31 20:55:54;;;;;;;1.58;0.70;;;;;;;13.16;73.29;99086.41;5025294;28;20471;-48
2023/03/31 20:58:20;;;;;;;1.80;0.70;;;;;;;13.15;72.88;99087.38;5031507;28;20087;-45
2023/03/31 21:00:46;;;;;;;2.03;0.80;;;;;;;13.15;72.87;99089.22;5023842;28;20026;-46
2023/03/31 21:03:11;;;;;;;1.08;0.98;;;;;;;13.14;73.02;99080.38;5025709;28;20029;-49
2023/03/31 21:05:44;;;;;;;1.50;0.80;;;;;;;13.14;72.80;99083.06;5031207;28;20045;-49
2023/03/31 21:08:11;;;;;;;1.20;0.82;;;;;;;13.14;72.87;99088.41;5029280;28;20360;-49
2023/03/31 21:10:44;;;;;;;1.88;0.68;;;;;;;13.14;73.17;99085.72;5025779;28;20661;-49
2023/03/31 21:13:12;;;;;;;2.67;0.70;;;;;;;13.12;72.61;99079.69;5027968;28;20033;-46
2023/03/31 21:15:38;;;;;;;1.80;0.98;;;;;;;13.13;73.19;99089.38;5024970;28;20025;-45
2023/03/31 21:18:05;;;;;;;1.52;0.60;;;;;;;13.13;73.06;99088.53;5025648;28;20109;-47
2023/03/31 21:20:32;;;;;;;2.55;1.00;;;;;;;13.12;72.69;99093.06;5026449;28;20017;-47
2023/03/31 21:22:57;;;;;;;2.15;0.93;;;;;;;13.13;72.63;99091.22;5023053;28;20061;-47
2023/03/31 21:25:24;;;;;;;2.63;0.80;;;;;;;13.12;72.51;99093.06;5028979;28;20056;-50
2023/03/31 21:27:50;;;;;;;1.70;1.00;;;;;;;13.11;73.08;99094.03;5027941;28;20096;-48
2023/03/31 21:30:15;;;;;;;2.45;1.00;;;;;;;13.11;72.69;99094.03;5031390;28;20049;-46
2023/03/31 21:32:41;;;;;;;2.03;0.75;;;;;;;13.11;72.92;99092.19;5025971;28;20041;-48
2023/03/31 21:35:07;;;;;;;1.65;0.80;;;;;;;13.10;72.56;99090.53;5032875;28;20528;-48
2023/03/31 21:37:33;;;;;;;3.03;0.93;;;;;;;13.10;72.89;99090.53;5024621;28;20049;-47
2023/03/31 21:39:58;;;;;;;0.93;0.60;;;;;;;13.09;72.87;99080.84;5032933;28;20032;-46
2023/03/31 21:42:23;;;;;;;1.77;0.80;;;;;;;13.11;72.55;99086.03;5022471;28;20037;-48
2023/03/31 21:44:52;;;;;;;1.10;0.80;;;;;;;13.11;72.92;99086.03;5030246;28;20064;-46
2023/03/31 21:47:18;;;;;;;1.95;0.77;;;;;;;13.09;72.74;99088.03;5019550;28;20029;-46
2023/03/31 21:49:43;;;;;;;1.77;0.88;;;;;;;13.10;72.74;99089.72;5029184;28;20045;-49
2023/03/31 21:52:09;;;;;;;3.25;1.00;;;;;;;13.09;72.80;99088.03;5022008;28;20043;-49
2023/03/31 21:54:34;;;;;;;1.50;1.00;;;;;;;13.10;72.54;99084.38;5029985;28;20433;-49
2023/03/31 21:57:00;;;;;;;3.30;0.70;;;;;;;13.09;72.69;99085.34;5026269;28;20482;-47
2023/03/31 21:59:25;;;;;;;1.27;0.80;;;;;;;13.08;72.62;99091.72;5026996;28;20512;-47
2023/03/31 22:01:51;;;;;;;1.00;0.70;;;;;;;13.09;72.90;99082.69;5019893;28;20171;-47
2023/03/31 22:04:16;;;;;;;2.03;0.77;;;;;;;13.08;72.93;99076.50;5027706;28;20025;-47
2023/03/31 22:06:41;;;;;;;1.25;0.70;;;;;;;13.07;72.74;99082.81;5024862;28;20038;-49
2023/03/31 22:09:07;;;;;;;2.22;0.80;;;;;;;13.08;72.61;99078.34;5029734;28;20021;-48
2023/03/31 22:11:32;;;;;;;1.10;0.70;;;;;;;13.07;72.84;99090.84;5022516;28;20026;-47
2023/03/31 22:13:58;;;;;;;2.42;0.77;;;;;;;13.08;72.55;99086.38;5023338;28;20120;-49
2023/03/31 22:16:23;;;;;;;2.25;0.98;;;;;;;13.07;72.58;99082.81;5022893;28;20472;-50
2023/03/31 22:18:49;;;;;;;2.38;0.93;;;;;;;13.07;72.63;99079.31;5022558;28;20034;-50
2023/03/31 22:21:16;;;;;;;2.33;0.80;;;;;;;13.05;72.54;99084.81;5022479;28;20030;-49
2023/03/31 22:23:42;;;;;;;1.77;0.93;;;;;;;13.05;72.73;99086.66;5022333;28;20080;-47
2023/03/31 22:26:07;;;;;;;2.63;0.70;;;;;;;13.06;72.53;99089.19;5022482;28;20042;-50
2023/03/31 22:28:32;;;;;;;2.30;0.88;;;;;;;13.05;72.71;99086.66;5022588;28;20034;-48
2023/03/31 22:30:58;;;;;;;3.55;0.80;;;;;;;13.06;72.26;99073.16;5022711;28;20076;-48
2023/03/31 22:33:23;;;;;;;1.10;0.70;;;;;;;13.06;72.70;99091.00;5022660;28;20042;-48
2023/03/31 22:35:49;;;;;;;2.72;0.98;;;;;;;13.06;72.32;99080.31;5022471;28;20586;-50
2023/03/31 22:38:15;;;;;;;2.22;0.95;;;;;;;13.06;72.55;99088.31;5022446;28;20475;-47
2023/03/31 22:40:40;;;;;;;2.00;0.80;;;;;;;13.05;72.65;99084.00;5022636;28;20399;-46
2023/03/31 22:43:06;;;;;;;1.13;0.75;;;;;;;13.05;72.61;99081.31;5027405;28;20034;-48
2023/03/31 22:45:33;;;;;;;2.38;0.70;;;;;;;13.03;72.41;99076.13;5024942;28;20100;-51
2023/03/31 22:47:59;;;;;;;1.95;0.70;;;;;;;13.04;72.43;99082.31;5023102;28;20511;-50
2023/03/31 22:50:24;;;;;;;1.80;0.80;;;;;;;13.03;72.44;99083.31;5022385;28;20065;-50
2023/03/31 22:52:50;;;;;;;1.13;0.90;;;;;;;13.05;72.58;99086.66;5022150;28;20034;-48
2023/03/31 22:55:16;;;;;;;1.30;0.70;;;;;;;13.03;72.59;99089.47;5022488;28;20375;-49
2023/03/31 22:57:41;;;;;;;2.33;0.73;;;;;;;13.04;72.30;99076.97;5022186;28;20088;-49
2023/03/31 23:00:08;;;;;;;0.82;0.63;;;;;;;13.04;72.52;99093.00;5022136;28;20032;-50
2023/03/31 23:02:33;;;;;;;0.60;0.60;;;;;;;13.02;72.35;99085.16;5022355;28;20045;-50
2023/03/31 23:04:58;;;;;;;0.85;0.50;;;;;;;13.03;72.77;99094.84;5022672;28;20060;-47
2023/03/31 23:07:24;;;;;;;0.50;0.50;;;;;;;13.03;72.79;99092.16;5022135;28;20135;-49
2023/03/31 23:09:50;;;;;;;0.90;0.73;;;;;;;13.02;72.21;99085.16;5021923;28;20041;-50
2023/03/31 23:12:15;;;;;;;1.00;0.60;;;;;;;13.02;72.63;99084.28;5022023;28;20034;-50
2023/03/31 23:14:40;;;;;;;1.13;0.70;;;;;;;13.02;72.36;99090.50;5022081;28;20036;-50
2023/03/31 23:17:07;;;;;;;2.63;0.60;;;;;;;13.02;72.21;99081.63;5023960;28;20030;-48
2023/03/31 23:19:32;;;;;;;0.63;0.57;;;;;;;13.02;72.53;99084.28;5025765;28;20083;-48
2023/03/31 23:22:00;;;;;;;2.03;0.90;;;;;;;13.02;72.65;99081.63;5026136;28;20491;-50
2023/03/31 23:24:28;;;;;;;1.38;0.70;;;;;;;13.01;72.30;99085.31;5025646;28;20033;-50
2023/03/31 23:26:54;;;;;;;1.70;0.70;;;;;;;13.01;72.17;99086.13;5026043;28;20037;-49
2023/03/31 23:29:20;;;;;;;1.02;0.60;;;;;;;13.01;72.21;99085.31;5024930;28;20033;-47
2023/03/31 23:31:45;;;;;;;0.80;0.63;;;;;;;13.01;72.46;99082.63;5024930;28;20046;-50
2023/03/31 23:34:12;;;;;;;0.77;0.57;;;;;;;13.01;72.63;99080.78;5025445;28;20033;-48
2023/03/31 23:36:38;;;;;;;1.65;0.65;;;;;;;13.02;72.55;99092.31;5025634;28;20418;-49
2023/03/31 23:39:05;;;;;;;1.95;0.63;;;;;;;13.00;72.49;99083.63;5025198;28;20091;-50
2023/03/31 23:41:31;;;;;;;0.47;0.43;;;;;;;13.00;72.54;99080.94;5026010;28;20083;-46
2023/03/31 23:43:56;;;;;;;1.52;0.80;;;;;;;13.00;72.48;99088.97;5025330;28;20437;-47
2023/03/31 23:46:24;;;;;;;1.73;0.82;;;;;;;13.00;72.11;99088.97;5025295;28;20785;-49
2023/03/31 23:48:50;;;;;;;1.08;0.60;;;;;;;13.00;72.49;99080.94;5025161;28;20040;-49
2023/03/31 23:51:16;;;;;;;1.27;0.60;;;;;;;13.00;72.24;99086.28;5025014;28;20112;-48
2023/03/31 23:53:42;;;;;;;1.45;0.68;;;;;;;12.99;72.15;99093.47;5025213;28;20056;-49
2023/03/31 23:56:10;;;;;;;0.77;0.65;;;;;;;12.99;72.53;99089.97;5028658;28;20639;-50
2023/03/31 23:58:36;;;;;;;1.85;0.73;;;;;;;12.99;72.18;99098.81;5023890;28;20471;-47
